createdAt,value
2017-01-30T00:00:38.213Z,0
2017-01-30T00:01:48.551Z,0
2017-01-30T00:02:58.946Z,0
2017-01-30T00:04:09.305Z,0
2017-01-30T00:05:19.241Z,0
2017-01-30T00:06:29.597Z,0
2017-01-30T00:07:40.357Z,0
2017-01-30T00:08:50.311Z,0
2017-01-30T00:10:00.268Z,0
2017-01-30T00:11:10.233Z,0
2017-01-30T00:12:20.240Z,0
2017-01-30T00:13:30.996Z,0
2017-01-30T00:14:41.380Z,0
2017-01-30T00:15:51.770Z,0
2017-01-30T00:17:01.734Z,0
2017-01-30T00:18:12.088Z,0
2017-01-30T00:19:22.438Z,0
2017-01-30T00:20:32.398Z,0
2017-01-30T00:21:43.137Z,0
2017-01-30T00:22:53.903Z,0
2017-01-30T00:24:04.643Z,0
2017-01-30T00:25:14.988Z,0
2017-01-30T00:26:24.930Z,0
2017-01-30T00:27:35.289Z,0
2017-01-30T00:28:45.624Z,0
2017-01-30T00:29:55.984Z,0
2017-01-30T00:31:06.729Z,0
2017-01-30T00:32:17.480Z,0
2017-01-30T00:33:27.826Z,0
2017-01-30T00:34:38.173Z,0
2017-01-30T00:35:47.740Z,0
2017-01-30T00:36:58.085Z,0
2017-01-30T00:38:08.433Z,0
2017-01-30T00:39:19.169Z,0
2017-01-30T00:40:29.908Z,0
2017-01-30T00:41:40.656Z,0
2017-01-30T00:42:51.010Z,0
2017-01-30T00:44:01.351Z,0
2017-01-30T00:45:12.113Z,0
2017-01-30T00:46:22.061Z,0
2017-01-30T00:47:32.013Z,0
2017-01-30T00:48:42.754Z,0
2017-01-30T00:49:53.115Z,0
2017-01-30T00:51:03.858Z,0
2017-01-30T00:52:14.612Z,0
2017-01-30T00:53:24.962Z,0
2017-01-30T00:54:35.716Z,0
2017-01-30T00:55:46.448Z,0
2017-01-30T00:56:56.818Z,0
2017-01-30T00:58:07.180Z,0
2017-01-30T00:59:17.930Z,0
2017-01-30T01:00:28.671Z,0
2017-01-30T01:01:39.017Z,0
2017-01-30T01:02:49.755Z,0
2017-01-30T01:03:59.701Z,0
2017-01-30T01:05:09.657Z,0
2017-01-30T01:06:20.404Z,0
2017-01-30T01:07:31.156Z,0
2017-01-30T01:08:41.492Z,0
2017-01-30T01:09:51.442Z,0
2017-01-30T01:11:02.241Z,0
2017-01-30T01:12:12.988Z,0
2017-01-30T01:13:23.719Z,0
2017-01-30T01:14:34.080Z,0
2017-01-30T01:15:44.671Z,0
2017-01-30T01:16:55.003Z,0
2017-01-30T01:18:05.345Z,0
2017-01-30T01:19:15.296Z,0
2017-01-30T01:20:25.641Z,0
2017-01-30T01:21:35.991Z,0
2017-01-30T01:22:46.352Z,0
2017-01-30T01:23:57.091Z,0
2017-01-30T01:25:07.435Z,0
2017-01-30T01:26:18.189Z,0
2017-01-30T01:27:28.935Z,0
2017-01-30T01:28:38.888Z,0
2017-01-30T01:29:49.246Z,0
2017-01-30T01:30:59.615Z,0
2017-01-30T01:32:09.593Z,0
2017-01-30T01:33:20.342Z,0
2017-01-30T01:34:31.090Z,0
2017-01-30T01:35:41.076Z,0
2017-01-30T01:36:51.824Z,0
2017-01-30T01:38:02.174Z,0
2017-01-30T01:39:12.921Z,0
2017-01-30T01:40:23.273Z,0
2017-01-30T01:41:33.619Z,0
2017-01-30T01:42:44.420Z,0
2017-01-30T01:43:55.156Z,0
2017-01-30T01:45:05.896Z,0
2017-01-30T01:46:16.649Z,0
2017-01-30T01:47:26.998Z,0
2017-01-30T01:48:37.343Z,0
2017-01-30T01:49:48.112Z,0
2017-01-30T01:50:58.448Z,0
2017-01-30T01:52:09.188Z,0
2017-01-30T01:53:19.938Z,0
2017-01-30T01:54:29.919Z,0
2017-01-30T01:55:40.661Z,0
2017-01-30T01:56:51.403Z,0
2017-01-30T01:58:01.987Z,0
2017-01-30T01:59:12.140Z,0
2017-01-30T02:00:22.878Z,0
2017-01-30T02:01:33.250Z,0
2017-01-30T02:02:44.017Z,0
2017-01-30T02:03:54.363Z,0
2017-01-30T02:05:04.316Z,0
2017-01-30T02:06:14.656Z,0
2017-01-30T02:07:25.388Z,0
2017-01-30T02:08:35.336Z,0
2017-01-30T02:09:46.068Z,0
2017-01-30T02:10:56.845Z,0
2017-01-30T02:12:07.189Z,0
2017-01-30T02:13:17.543Z,0
2017-01-30T02:14:28.283Z,0
2017-01-30T02:15:38.641Z,0
2017-01-30T02:16:48.982Z,0
2017-01-30T02:17:59.324Z,0
2017-01-30T02:19:09.681Z,0
2017-01-30T02:20:20.420Z,0
2017-01-30T02:21:30.783Z,0
2017-01-30T02:22:41.137Z,0
2017-01-30T02:23:51.884Z,0
2017-01-30T02:25:02.628Z,0
2017-01-30T02:26:13.365Z,0
2017-01-30T02:27:24.128Z,0
2017-01-30T02:28:34.470Z,0
2017-01-30T02:29:44.816Z,0
2017-01-30T02:30:55.162Z,0
2017-01-30T02:32:05.523Z,0
2017-01-30T02:33:16.247Z,0
2017-01-30T02:34:26.997Z,0
2017-01-30T02:35:37.745Z,0
2017-01-30T02:36:48.508Z,0
2017-01-30T02:37:57.689Z,0
2017-01-30T02:39:07.650Z,0
2017-01-30T02:40:18.042Z,0
2017-01-30T02:41:28.383Z,0
2017-01-30T02:42:38.351Z,0
2017-01-30T02:43:48.725Z,0
2017-01-30T02:44:59.060Z,0
2017-01-30T02:46:09.016Z,0
2017-01-30T02:47:19.742Z,0
2017-01-30T02:48:30.084Z,0
2017-01-30T02:49:40.422Z,0
2017-01-30T02:50:51.219Z,0
2017-01-30T02:52:01.585Z,0
2017-01-30T02:53:11.926Z,0
2017-01-30T02:54:22.287Z,0
2017-01-30T02:55:32.639Z,0
2017-01-30T02:56:42.980Z,0
2017-01-30T02:57:52.939Z,0
2017-01-30T02:59:03.673Z,0
2017-01-30T03:00:14.011Z,0
2017-01-30T03:01:24.387Z,0
2017-01-30T03:32:44.872Z,0
2017-01-30T03:33:55.185Z,0
2017-01-30T03:35:05.956Z,0
2017-01-30T03:36:16.312Z,0
2017-01-30T03:37:26.262Z,0
2017-01-30T03:38:36.607Z,0
2017-01-30T03:39:47.346Z,0
2017-01-30T03:40:58.085Z,0
2017-01-30T03:42:08.825Z,0
2017-01-30T03:43:19.170Z,0
2017-01-30T03:44:29.514Z,0
2017-01-30T03:45:39.871Z,0
2017-01-30T03:46:50.644Z,0
2017-01-30T03:48:01.376Z,0
2017-01-30T03:49:11.740Z,0
2017-01-30T03:50:22.092Z,0
2017-01-30T03:51:32.056Z,0
2017-01-30T03:52:42.395Z,0
2017-01-30T03:53:52.740Z,0
2017-01-30T03:55:03.516Z,0
2017-01-30T03:56:13.859Z,0
2017-01-30T03:57:24.604Z,0
2017-01-30T03:58:34.948Z,0
2017-01-30T03:59:45.304Z,0
2017-01-30T04:00:54.871Z,0
2017-01-30T04:02:05.805Z,0
2017-01-30T04:03:16.151Z,0
2017-01-30T04:04:26.104Z,0
2017-01-30T04:05:36.445Z,0
2017-01-30T04:06:46.411Z,0
2017-01-30T04:07:56.763Z,0
2017-01-30T04:09:07.510Z,0
2017-01-30T04:10:18.244Z,0
2017-01-30T04:11:27.808Z,0
2017-01-30T04:12:37.761Z,0
2017-01-30T04:13:48.120Z,0
2017-01-30T04:14:58.079Z,0
2017-01-30T04:16:08.430Z,0
2017-01-30T04:17:18.802Z,0
2017-01-30T04:18:29.153Z,0
2017-01-30T04:19:39.892Z,0
2017-01-30T04:20:50.623Z,0
2017-01-30T04:22:00.971Z,0
2017-01-30T04:23:11.702Z,0
2017-01-30T04:24:21.658Z,0
2017-01-30T04:25:32.395Z,0
2017-01-30T04:26:43.131Z,0
2017-01-30T04:27:53.882Z,0
2017-01-30T04:29:04.620Z,0
2017-01-30T04:30:15.370Z,0
2017-01-30T04:31:26.113Z,0
2017-01-30T04:32:36.068Z,0
2017-01-30T04:33:46.406Z,0
2017-01-30T04:34:56.361Z,0
2017-01-30T04:36:06.699Z,0
2017-01-30T04:37:16.643Z,0
2017-01-30T04:38:27.374Z,0
2017-01-30T04:39:36.934Z,0
2017-01-30T04:40:46.903Z,0
2017-01-30T04:41:56.843Z,0
2017-01-30T04:43:07.583Z,0
2017-01-30T04:44:17.933Z,0
2017-01-30T04:45:28.679Z,0
2017-01-30T04:46:39.040Z,0
2017-01-30T04:47:49.775Z,0
2017-01-30T04:49:00.524Z,0
2017-01-30T04:50:11.261Z,0
2017-01-30T04:51:21.215Z,0
2017-01-30T04:52:31.948Z,0
2017-01-30T04:53:42.286Z,0
2017-01-30T04:54:53.034Z,0
2017-01-30T04:56:02.977Z,0
2017-01-30T04:57:13.345Z,0
2017-01-30T04:58:23.293Z,0
2017-01-30T04:59:34.035Z,0
2017-01-30T05:00:44.770Z,0
2017-01-30T05:01:55.153Z,0
2017-01-30T05:03:05.134Z,0
2017-01-30T05:04:15.500Z,0
2017-01-30T05:05:25.847Z,0
2017-01-30T05:06:35.800Z,0
2017-01-30T05:07:46.539Z,0
2017-01-30T05:08:56.896Z,0
2017-01-30T05:10:07.635Z,0
2017-01-30T05:11:17.987Z,0
2017-01-30T05:12:28.727Z,0
2017-01-30T05:13:39.100Z,0
2017-01-30T05:14:48.673Z,0
2017-01-30T05:15:59.027Z,0
2017-01-30T05:17:09.775Z,0
2017-01-30T05:18:20.189Z,0
2017-01-30T05:19:30.932Z,0
2017-01-30T05:20:41.266Z,0
2017-01-30T05:21:52.017Z,0
2017-01-30T05:23:02.752Z,0
2017-01-30T05:24:13.494Z,0
2017-01-30T05:25:23.842Z,0
2017-01-30T05:26:34.578Z,0
2017-01-30T05:27:44.933Z,0
2017-01-30T05:28:55.667Z,0
2017-01-30T05:30:06.024Z,0
2017-01-30T05:31:16.765Z,0
2017-01-30T05:32:27.510Z,0
2017-01-30T05:33:37.857Z,0
2017-01-30T05:34:47.814Z,0
2017-01-30T05:35:58.587Z,0
2017-01-30T05:37:08.934Z,0
2017-01-30T05:38:19.665Z,0
2017-01-30T05:39:30.408Z,0
2017-01-30T05:40:41.152Z,0
2017-01-30T05:41:51.135Z,0
2017-01-30T05:43:01.116Z,0
2017-01-30T05:44:11.463Z,0
2017-01-30T05:45:22.217Z,0
2017-01-30T05:46:32.603Z,0
2017-01-30T05:47:43.361Z,0
2017-01-30T05:48:53.720Z,0
2017-01-30T05:50:04.086Z,0
2017-01-30T05:51:14.856Z,0
2017-01-30T05:52:25.594Z,0
2017-01-30T05:53:36.337Z,0
2017-01-30T05:54:47.077Z,0
2017-01-30T05:55:57.420Z,4
2017-01-30T05:57:08.201Z,4
2017-01-30T05:58:18.940Z,4
2017-01-30T05:59:29.672Z,0
2017-01-30T06:00:40.412Z,0
2017-01-30T06:01:51.157Z,0
2017-01-30T06:03:01.911Z,4
2017-01-30T06:04:11.866Z,4
2017-01-30T06:05:22.633Z,4
2017-01-30T06:06:33.374Z,4
2017-01-30T06:07:43.730Z,4
2017-01-30T06:08:54.461Z,8
2017-01-30T06:10:04.791Z,8
2017-01-30T06:11:15.529Z,4
2017-01-30T06:12:26.269Z,8
2017-01-30T06:13:37.022Z,12
2017-01-30T06:14:47.806Z,8
2017-01-30T06:15:58.550Z,12
2017-01-30T06:17:09.301Z,8
2017-01-30T06:18:20.044Z,12
2017-01-30T06:19:30.780Z,16
2017-01-30T06:20:41.130Z,16
2017-01-30T06:21:51.080Z,16
2017-01-30T06:23:01.423Z,20
2017-01-30T06:24:10.990Z,24
2017-01-30T06:25:21.351Z,24
2017-01-30T06:26:31.710Z,28
2017-01-30T06:27:42.453Z,32
2017-01-30T06:28:52.812Z,32
2017-01-30T06:30:03.170Z,36
2017-01-30T06:31:13.913Z,40
2017-01-30T06:32:24.654Z,44
2017-01-30T06:33:35.020Z,44
2017-01-30T06:34:45.758Z,52
2017-01-30T06:35:55.721Z,56
2017-01-30T06:37:06.067Z,60
2017-01-30T06:38:16.430Z,64
2017-01-30T06:39:27.190Z,72
2017-01-30T06:40:36.361Z,96
2017-01-30T06:41:46.317Z,128
2017-01-30T06:42:57.059Z,140
2017-01-30T06:44:07.802Z,116
2017-01-30T06:45:17.358Z,108
2017-01-30T06:46:27.714Z,128
2017-01-30T06:47:37.656Z,164
2017-01-30T06:48:48.002Z,148
2017-01-30T06:49:58.756Z,136
2017-01-30T06:51:09.503Z,140
2017-01-30T06:52:20.248Z,148
2017-01-30T06:53:30.996Z,156
2017-01-30T06:54:41.743Z,148
2017-01-30T06:55:52.488Z,144
2017-01-30T06:57:02.445Z,140
2017-01-30T06:58:12.390Z,152
2017-01-30T06:59:23.122Z,156
2017-01-30T07:00:33.493Z,164
2017-01-30T07:01:44.251Z,176
2017-01-30T07:02:54.208Z,192
2017-01-30T07:04:04.955Z,176
2017-01-30T07:05:15.316Z,180
2017-01-30T07:06:25.666Z,188
2017-01-30T07:07:35.221Z,200
2017-01-30T07:08:45.173Z,208
2017-01-30T07:09:55.134Z,208
2017-01-30T07:11:05.480Z,216
2017-01-30T07:12:16.219Z,212
2017-01-30T07:13:26.956Z,232
2017-01-30T07:14:37.695Z,236
2017-01-30T07:15:48.453Z,244
2017-01-30T07:16:58.803Z,240
2017-01-30T07:18:09.542Z,228
2017-01-30T07:19:19.502Z,248
2017-01-30T07:20:29.850Z,280
2017-01-30T07:21:40.595Z,384
2017-01-30T07:22:50.945Z,508
2017-01-30T07:24:01.691Z,532
2017-01-30T07:25:11.671Z,588
2017-01-30T07:26:21.636Z,584
2017-01-30T07:27:32.606Z,608
2017-01-30T07:28:42.956Z,620
2017-01-30T07:29:52.918Z,676
2017-01-30T07:31:03.256Z,620
2017-01-30T07:32:14.010Z,676
2017-01-30T07:33:24.354Z,664
2017-01-30T07:34:35.105Z,572
2017-01-30T07:35:45.862Z,532
2017-01-30T07:36:56.216Z,508
2017-01-30T07:38:06.956Z,500
2017-01-30T07:39:17.313Z,520
2017-01-30T07:40:28.060Z,444
2017-01-30T07:41:38.814Z,440
2017-01-30T07:42:49.165Z,492
2017-01-30T07:43:59.510Z,588
2017-01-30T07:45:09.857Z,512
2017-01-30T07:46:20.613Z,520
2017-01-30T07:47:30.965Z,508
2017-01-30T07:48:41.712Z,528
2017-01-30T07:49:52.067Z,560
2017-01-30T07:51:02.818Z,568
2017-01-30T07:52:12.771Z,584
2017-01-30T07:53:23.529Z,648
2017-01-30T07:54:33.876Z,632
2017-01-30T07:55:44.623Z,596
2017-01-30T07:56:55.352Z,580
2017-01-30T07:58:05.706Z,596
2017-01-30T07:59:16.047Z,600
2017-01-30T08:00:26.401Z,608
2017-01-30T08:01:37.139Z,604
2017-01-30T08:02:47.504Z,624
2017-01-30T08:03:58.278Z,604
2017-01-30T08:05:08.642Z,632
2017-01-30T08:06:18.999Z,624
2017-01-30T08:07:29.743Z,644
2017-01-30T08:08:40.479Z,692
2017-01-30T08:09:50.824Z,732
2017-01-30T08:11:01.179Z,768
2017-01-30T08:12:11.513Z,928
2017-01-30T08:13:21.858Z,1068
2017-01-30T08:14:32.610Z,1268
2017-01-30T08:15:42.974Z,1100
2017-01-30T08:16:53.749Z,1092
2017-01-30T08:18:04.504Z,1056
2017-01-30T08:19:14.850Z,916
2017-01-30T08:20:24.806Z,856
2017-01-30T08:21:34.756Z,828
2017-01-30T08:22:45.109Z,796
2017-01-30T08:23:55.060Z,832
2017-01-30T08:25:05.025Z,852
2017-01-30T08:26:15.762Z,864
2017-01-30T08:27:25.318Z,884
2017-01-30T08:28:36.052Z,860
2017-01-30T08:29:46.790Z,816
2017-01-30T08:30:57.545Z,872
2017-01-30T08:32:07.920Z,896
2017-01-30T08:33:18.252Z,908
2017-01-30T08:34:28.211Z,884
2017-01-30T08:35:38.553Z,828
2017-01-30T08:36:49.307Z,860
2017-01-30T08:37:59.662Z,956
2017-01-30T08:39:10.012Z,944
2017-01-30T08:40:20.446Z,1024
2017-01-30T08:41:31.202Z,1084
2017-01-30T08:42:41.549Z,1100
2017-01-30T08:43:52.300Z,1072
2017-01-30T08:45:02.648Z,1096
2017-01-30T08:46:12.213Z,1112
2017-01-30T08:47:22.952Z,1168
2017-01-30T08:48:33.701Z,1204
2017-01-30T08:49:44.039Z,1132
2017-01-30T08:50:54.378Z,1080
2017-01-30T08:52:05.125Z,1068
2017-01-30T08:53:15.870Z,1056
2017-01-30T08:54:26.227Z,1064
2017-01-30T08:55:36.984Z,1036
2017-01-30T08:56:47.721Z,1052
2017-01-30T08:57:58.467Z,1044
2017-01-30T08:59:09.203Z,1040
2017-01-30T09:00:19.944Z,1044
2017-01-30T09:01:30.300Z,1016
2017-01-30T09:02:40.665Z,1008
2017-01-30T09:03:51.418Z,1040
2017-01-30T09:05:01.769Z,1092
2017-01-30T09:06:11.728Z,1080
2017-01-30T09:07:22.463Z,1076
2017-01-30T09:08:32.414Z,1072
2017-01-30T09:09:43.172Z,1124
2017-01-30T09:10:53.911Z,1180
2017-01-30T09:12:04.246Z,1264
2017-01-30T09:13:14.203Z,1356
2017-01-30T09:14:24.548Z,1548
2017-01-30T09:15:34.889Z,1412
2017-01-30T09:16:45.244Z,1368
2017-01-30T09:17:55.997Z,1240
2017-01-30T09:19:05.991Z,1192
2017-01-30T09:20:16.739Z,1216
2017-01-30T09:21:27.492Z,1284
2017-01-30T09:22:37.836Z,1304
2017-01-30T09:23:48.577Z,1220
2017-01-30T09:24:58.924Z,1204
2017-01-30T09:26:08.486Z,1196
2017-01-30T09:27:18.836Z,1204
2017-01-30T09:28:29.590Z,1228
2017-01-30T09:29:39.544Z,1252
2017-01-30T09:30:50.283Z,1240
2017-01-30T09:32:00.240Z,1280
2017-01-30T09:33:10.972Z,1268
2017-01-30T09:34:20.918Z,1256
2017-01-30T09:35:31.655Z,1224
2017-01-30T09:36:41.605Z,1240
2017-01-30T09:37:51.977Z,1236
2017-01-30T09:39:02.711Z,1208
2017-01-30T09:40:13.052Z,1284
2017-01-30T09:41:23.397Z,1340
2017-01-30T09:42:34.154Z,1248
2017-01-30T09:43:44.904Z,1204
2017-01-30T09:44:55.245Z,1268
2017-01-30T09:46:05.205Z,1336
2017-01-30T09:47:15.939Z,1376
2017-01-30T09:48:26.724Z,1392
2017-01-30T09:49:37.083Z,1328
2017-01-30T09:50:47.437Z,1268
2017-01-30T09:51:58.174Z,1292
2017-01-30T09:53:08.923Z,1248
2017-01-30T09:54:19.284Z,1264
2017-01-30T09:55:30.032Z,1336
2017-01-30T09:56:39.596Z,1364
2017-01-30T09:57:50.331Z,1364
2017-01-30T09:59:00.683Z,1400
2017-01-30T10:00:11.031Z,1456
2017-01-30T10:01:21.382Z,1480
2017-01-30T10:02:32.133Z,1540
2017-01-30T10:03:42.870Z,1612
2017-01-30T10:04:53.643Z,1776
2017-01-30T10:06:04.001Z,2172
2017-01-30T10:07:14.759Z,2488
2017-01-30T10:08:25.528Z,2420
2017-01-30T10:09:36.302Z,2384
2017-01-30T10:10:46.676Z,2068
2017-01-30T10:11:57.432Z,1836
2017-01-30T10:13:08.205Z,1656
2017-01-30T10:14:18.559Z,1580
2017-01-30T10:15:28.907Z,1528
2017-01-30T10:16:39.923Z,1528
2017-01-30T10:17:50.291Z,1520
2017-01-30T10:19:01.041Z,1460
2017-01-30T10:20:11.788Z,1468
2017-01-30T10:21:22.559Z,1476
2017-01-30T10:22:33.308Z,1580
2017-01-30T10:23:43.665Z,1668
2017-01-30T10:24:54.413Z,1728
2017-01-30T10:26:04.365Z,1744
2017-01-30T10:27:14.348Z,1916
2017-01-30T10:28:24.722Z,1896
2017-01-30T10:29:35.472Z,1944
2017-01-30T10:30:45.445Z,1852
2017-01-30T10:31:56.190Z,1776
2017-01-30T10:33:06.541Z,1756
2017-01-30T10:34:17.297Z,1708
2017-01-30T10:35:27.642Z,1696
2017-01-30T10:36:37.988Z,1668
2017-01-30T10:37:48.733Z,1648
2017-01-30T10:38:59.082Z,1608
2017-01-30T10:40:09.818Z,1628
2017-01-30T10:41:20.547Z,1752
2017-01-30T10:42:30.898Z,1760
2017-01-30T10:43:41.243Z,1776
2017-01-30T10:44:51.203Z,1724
2017-01-30T10:46:01.563Z,1720
2017-01-30T10:47:12.315Z,1692
2017-01-30T10:48:22.273Z,1632
2017-01-30T10:49:33.040Z,1556
2017-01-30T10:50:43.795Z,1544
2017-01-30T10:51:53.752Z,1528
2017-01-30T10:53:03.701Z,1508
2017-01-30T10:54:14.457Z,1536
2017-01-30T10:55:24.799Z,1624
2017-01-30T10:56:35.178Z,1652
2017-01-30T10:57:45.917Z,1688
2017-01-30T10:58:56.681Z,1676
2017-01-30T11:00:06.620Z,1616
2017-01-30T11:01:17.004Z,1568
2017-01-30T11:02:27.615Z,1580
2017-01-30T11:03:38.405Z,1584
2017-01-30T11:04:49.142Z,1548
2017-01-30T11:05:59.496Z,1512
2017-01-30T11:07:09.852Z,1436
2017-01-30T11:08:20.207Z,1460
2017-01-30T11:09:30.553Z,1416
2017-01-30T11:10:41.302Z,1388
2017-01-30T11:11:52.045Z,1356
2017-01-30T11:13:02.389Z,1368
2017-01-30T11:14:12.738Z,1444
2017-01-30T11:15:23.735Z,1664
2017-01-30T11:16:34.073Z,2056
2017-01-30T11:17:44.825Z,1916
2017-01-30T11:18:55.182Z,1716
2017-01-30T11:20:05.523Z,1620
2017-01-30T11:21:15.887Z,1484
2017-01-30T11:22:26.630Z,1416
2017-01-30T11:23:37.394Z,1364
2017-01-30T11:24:47.359Z,1324
2017-01-30T11:25:57.748Z,1316
2017-01-30T11:27:08.492Z,1328
2017-01-30T11:28:18.447Z,1192
2017-01-30T11:29:28.402Z,1172
2017-01-30T11:30:39.142Z,1164
2017-01-30T11:31:49.877Z,1200
2017-01-30T11:33:00.224Z,1228
2017-01-30T11:34:10.565Z,1264
2017-01-30T11:35:20.945Z,1396
2017-01-30T11:36:31.677Z,1416
2017-01-30T11:37:42.041Z,1384
2017-01-30T11:38:52.796Z,1432
2017-01-30T11:40:03.169Z,1412
2017-01-30T11:41:13.516Z,1440
2017-01-30T11:42:23.880Z,1392
2017-01-30T11:43:33.889Z,1316
2017-01-30T11:44:44.640Z,1328
2017-01-30T11:45:55.383Z,1264
2017-01-30T11:47:06.124Z,1268
2017-01-30T11:48:16.478Z,1208
2017-01-30T11:49:27.249Z,1204
2017-01-30T11:50:36.428Z,1216
2017-01-30T11:51:47.156Z,1212
2017-01-30T11:52:57.901Z,1300
2017-01-30T11:54:08.249Z,1236
2017-01-30T11:55:18.996Z,1324
2017-01-30T11:56:29.342Z,1340
2017-01-30T11:57:40.090Z,1328
2017-01-30T11:58:50.826Z,1312
2017-01-30T12:00:00.788Z,1176
2017-01-30T12:01:11.542Z,1132
2017-01-30T12:02:21.896Z,1156
2017-01-30T12:03:32.673Z,1184
2017-01-30T12:04:43.034Z,1264
2017-01-30T12:05:52.977Z,1312
2017-01-30T12:07:03.788Z,1336
2017-01-30T12:08:14.150Z,1320
2017-01-30T12:09:24.891Z,1296
2017-01-30T12:10:35.240Z,1304
2017-01-30T12:11:45.602Z,1340
2017-01-30T12:12:55.969Z,1456
2017-01-30T12:14:06.709Z,1428
2017-01-30T12:15:17.071Z,1380
2017-01-30T12:16:27.819Z,1252
2017-01-30T12:17:38.576Z,1236
2017-01-30T12:18:48.548Z,1268
2017-01-30T12:19:59.283Z,1264
2017-01-30T12:21:09.625Z,1212
2017-01-30T12:22:18.795Z,1156
2017-01-30T12:23:29.539Z,1132
2017-01-30T12:24:40.299Z,1136
2017-01-30T12:25:51.074Z,1188
2017-01-30T12:27:01.415Z,1188
2017-01-30T12:28:10.969Z,1212
2017-01-30T12:29:20.928Z,1216
2017-01-30T12:30:30.099Z,1144
2017-01-30T12:31:40.838Z,1092
2017-01-30T12:32:51.587Z,1092
2017-01-30T12:34:01.929Z,1088
2017-01-30T12:35:12.731Z,1168
2017-01-30T12:36:23.114Z,1160
2017-01-30T12:37:33.860Z,1292
2017-01-30T12:38:44.616Z,1424
2017-01-30T12:39:54.982Z,1524
2017-01-30T12:41:05.337Z,1388
2017-01-30T12:42:16.072Z,1288
2017-01-30T12:43:26.810Z,1236
2017-01-30T12:44:37.571Z,1188
2017-01-30T12:45:48.318Z,1132
2017-01-30T12:46:59.060Z,1148
2017-01-30T12:48:09.421Z,1156
2017-01-30T12:49:19.765Z,1348
2017-01-30T12:50:30.512Z,1376
2017-01-30T12:51:40.870Z,1508
2017-01-30T12:52:51.227Z,1464
2017-01-30T12:54:01.584Z,1680
2017-01-30T12:55:11.560Z,1612
2017-01-30T12:56:22.386Z,1324
2017-01-30T12:57:33.152Z,1284
2017-01-30T12:58:43.503Z,1476
2017-01-30T12:59:53.857Z,1424
2017-01-30T13:01:04.605Z,1380
2017-01-30T13:02:15.345Z,1264
2017-01-30T13:03:25.751Z,1260
2017-01-30T13:04:36.499Z,1252
2017-01-30T13:05:47.248Z,1192
2017-01-30T13:06:57.610Z,1128
2017-01-30T13:08:08.354Z,1124
2017-01-30T13:09:19.104Z,1112
2017-01-30T13:10:29.067Z,1096
2017-01-30T13:11:39.424Z,1088
2017-01-30T13:12:49.005Z,1116
2017-01-30T13:13:59.365Z,1340
2017-01-30T13:15:09.721Z,1320
2017-01-30T13:16:20.058Z,1324
2017-01-30T13:17:30.434Z,1208
2017-01-30T13:18:40.860Z,952
2017-01-30T13:19:51.632Z,888
2017-01-30T13:21:02.455Z,868
2017-01-30T13:22:12.985Z,924
2017-01-30T13:23:23.358Z,872
2017-01-30T13:24:34.169Z,888
2017-01-30T13:25:43.760Z,872
2017-01-30T13:26:54.123Z,816
2017-01-30T13:28:04.897Z,776
2017-01-30T13:29:15.262Z,824
2017-01-30T13:30:25.625Z,820
2017-01-30T13:31:36.594Z,792
2017-01-30T13:32:46.557Z,852
2017-01-30T13:33:56.914Z,880
2017-01-30T13:35:06.870Z,860
2017-01-30T13:36:16.441Z,812
2017-01-30T13:37:27.207Z,840
2017-01-30T13:38:37.975Z,852
2017-01-30T13:39:48.757Z,868
2017-01-30T13:40:59.130Z,924
2017-01-30T13:42:08.685Z,936
2017-01-30T13:43:18.642Z,924
2017-01-30T13:44:28.604Z,828
2017-01-30T13:45:39.413Z,792
2017-01-30T13:46:50.212Z,752
2017-01-30T13:48:00.993Z,708
2017-01-30T13:49:11.743Z,688
2017-01-30T13:50:22.511Z,656
2017-01-30T13:51:33.284Z,652
2017-01-30T13:52:44.045Z,728
2017-01-30T13:53:54.828Z,780
2017-01-30T13:55:05.574Z,1132
2017-01-30T13:56:15.949Z,1072
2017-01-30T13:57:25.906Z,996
2017-01-30T13:58:36.248Z,968
2017-01-30T13:59:47.269Z,880
2017-01-30T14:00:57.645Z,792
2017-01-30T14:02:07.991Z,724
2017-01-30T14:03:18.349Z,644
2017-01-30T14:04:28.315Z,652
2017-01-30T14:05:39.075Z,604
2017-01-30T14:06:49.445Z,600
2017-01-30T14:07:59.816Z,596
2017-01-30T14:09:09.775Z,548
2017-01-30T14:10:20.176Z,556
2017-01-30T14:11:30.544Z,536
2017-01-30T14:12:41.307Z,568
2017-01-30T14:13:52.063Z,548
2017-01-30T14:15:02.841Z,516
2017-01-30T14:16:13.600Z,532
2017-01-30T14:17:23.945Z,512
2017-01-30T14:18:34.711Z,504
2017-01-30T14:19:45.506Z,512
2017-01-30T14:20:55.892Z,484
2017-01-30T14:22:05.861Z,492
2017-01-30T14:23:16.605Z,548
2017-01-30T14:24:26.947Z,572
2017-01-30T14:25:37.296Z,536
2017-01-30T14:26:47.643Z,524
2017-01-30T14:27:58.395Z,520
2017-01-30T14:29:08.755Z,528
2017-01-30T14:30:19.489Z,544
2017-01-30T14:31:30.248Z,468
2017-01-30T14:32:41.006Z,444
2017-01-30T14:33:51.377Z,432
2017-01-30T14:35:02.123Z,412
2017-01-30T14:36:12.504Z,384
2017-01-30T14:37:22.865Z,376
2017-01-30T14:38:33.223Z,368
2017-01-30T14:39:43.968Z,372
2017-01-30T14:40:54.315Z,368
2017-01-30T14:42:04.685Z,360
2017-01-30T14:43:15.443Z,352
2017-01-30T14:44:26.199Z,348
2017-01-30T14:45:36.542Z,336
2017-01-30T14:46:47.291Z,324
2017-01-30T14:47:58.044Z,292
2017-01-30T14:49:08.411Z,300
2017-01-30T14:50:18.768Z,292
2017-01-30T14:51:29.504Z,280
2017-01-30T14:52:40.281Z,280
2017-01-30T14:53:49.844Z,276
2017-01-30T14:55:00.585Z,264
2017-01-30T14:56:11.338Z,252
2017-01-30T14:57:21.748Z,244
2017-01-30T14:58:32.096Z,272
2017-01-30T14:59:42.066Z,268
2017-01-30T15:00:52.848Z,260
2017-01-30T15:02:02.811Z,272
2017-01-30T15:03:12.776Z,288
2017-01-30T15:04:23.205Z,244
2017-01-30T15:05:33.970Z,224
2017-01-30T15:06:44.311Z,224
2017-01-30T15:07:55.095Z,204
2017-01-30T15:09:05.859Z,200
2017-01-30T15:10:16.238Z,192
2017-01-30T15:11:26.988Z,176
2017-01-30T15:12:37.740Z,164
2017-01-30T15:13:48.492Z,156
2017-01-30T15:14:58.077Z,156
2017-01-30T15:16:08.819Z,144
2017-01-30T15:17:18.787Z,140
2017-01-30T15:18:29.382Z,136
2017-01-30T15:19:39.330Z,144
2017-01-30T15:20:49.292Z,148
2017-01-30T15:21:59.662Z,148
2017-01-30T15:23:10.418Z,132
2017-01-30T15:24:20.762Z,124
2017-01-30T15:25:31.536Z,112
2017-01-30T15:26:41.890Z,100
2017-01-30T15:27:52.644Z,96
2017-01-30T15:29:03.391Z,88
2017-01-30T15:30:14.139Z,80
2017-01-30T15:31:24.877Z,76
2017-01-30T15:32:35.613Z,72
2017-01-30T15:33:46.384Z,68
2017-01-30T15:34:56.753Z,68
2017-01-30T15:36:07.531Z,56
2017-01-30T15:37:18.266Z,60
2017-01-30T15:38:29.029Z,60
2017-01-30T15:39:39.382Z,72
2017-01-30T15:40:50.119Z,68
2017-01-30T15:42:00.865Z,60
2017-01-30T15:43:11.612Z,48
2017-01-30T15:44:21.955Z,40
2017-01-30T15:45:51.454Z,32
2017-01-30T15:47:02.216Z,28
2017-01-30T15:48:12.587Z,28
2017-01-30T15:49:22.941Z,28
2017-01-30T15:50:33.723Z,24
2017-01-30T15:51:44.462Z,20
2017-01-30T15:52:54.813Z,20
2017-01-30T15:54:05.557Z,20
2017-01-30T15:55:15.903Z,16
2017-01-30T15:56:26.677Z,12
2017-01-30T15:57:37.431Z,12
2017-01-30T15:58:47.400Z,8
2017-01-30T15:59:57.770Z,8
2017-01-30T16:01:08.544Z,8
2017-01-30T16:02:18.513Z,4
2017-01-30T16:03:28.498Z,4
2017-01-30T16:04:38.856Z,4
2017-01-30T16:05:48.824Z,4
2017-01-30T16:06:59.571Z,4
2017-01-30T16:08:09.139Z,4
2017-01-30T16:09:19.896Z,0
2017-01-30T16:10:29.853Z,4
2017-01-30T16:11:40.226Z,0
2017-01-30T16:12:50.182Z,0
2017-01-30T16:14:00.555Z,0
2017-01-30T16:15:10.920Z,0
2017-01-30T16:16:21.277Z,0
2017-01-30T16:17:31.627Z,0
2017-01-30T16:18:42.404Z,0
2017-01-30T16:19:53.148Z,0
2017-01-30T16:21:03.909Z,0
2017-01-30T16:22:14.270Z,0
2017-01-30T16:23:25.027Z,0
2017-01-30T16:24:35.025Z,0
2017-01-30T16:25:45.379Z,0
2017-01-30T16:26:54.937Z,0
2017-01-30T16:28:05.688Z,0
2017-01-30T16:29:15.634Z,0
2017-01-30T16:30:26.390Z,0
2017-01-30T16:31:36.754Z,0
2017-01-30T16:32:47.504Z,0
2017-01-30T16:33:58.253Z,0
2017-01-30T16:35:08.633Z,0
2017-01-30T16:36:19.000Z,0
2017-01-30T16:37:29.387Z,0
2017-01-30T16:38:39.721Z,0
2017-01-30T16:39:50.100Z,0
2017-01-30T16:41:00.467Z,0
2017-01-30T16:42:10.424Z,0
2017-01-30T16:43:21.168Z,0
2017-01-30T16:44:31.909Z,0
2017-01-30T16:45:41.896Z,0
2017-01-30T16:46:52.684Z,0
2017-01-30T16:48:03.430Z,0
2017-01-30T16:49:14.173Z,0
2017-01-30T16:50:24.571Z,0
2017-01-30T16:51:34.979Z,0
2017-01-30T16:52:44.972Z,0
2017-01-30T16:53:54.936Z,0
2017-01-30T16:55:05.703Z,0
2017-01-30T16:56:16.478Z,0
2017-01-30T16:57:27.245Z,0
2017-01-30T16:58:37.219Z,0
2017-01-30T16:59:47.982Z,0
2017-01-30T17:00:58.347Z,0